createdAt,value
2022-08-30T00:00:38.554Z,92.14
2022-08-30T00:04:03.192Z,90.87
2022-08-30T00:07:11.957Z,90.20
2022-08-30T00:10:19.304Z,89.71
2022-08-30T00:13:25.583Z,89.33
2022-08-30T00:16:28.945Z,89.40
2022-08-30T00:19:33.514Z,89.67
2022-08-30T00:22:58.025Z,89.59
2022-08-30T00:26:02.662Z,89.65
2022-08-30T00:29:10.694Z,89.72
2022-08-30T00:32:16.810Z,89.60
2022-08-30T00:35:21.296Z,89.70
2022-08-30T00:38:26.109Z,89.67
2022-08-30T00:41:30.569Z,90.10
2022-08-30T00:44:36.747Z,90.04
2022-08-30T00:47:41.251Z,90.04
2022-08-30T00:50:53.295Z,90.09
2022-08-30T00:53:59.728Z,90.53
2022-08-30T00:57:04.505Z,90.28
2022-08-30T01:00:41.033Z,90.16
2022-08-30T01:04:06.568Z,90.82
2022-08-30T01:07:12.364Z,91.34
2022-08-30T01:10:18.180Z,91.30
2022-08-30T01:13:23.647Z,91.29
2022-08-30T01:16:30.714Z,91.48
2022-08-30T01:19:58.245Z,92.40
2022-08-30T01:23:07.167Z,91.90
2022-08-30T01:26:15.935Z,92.41
2022-08-30T01:29:25.844Z,93.36
2022-08-30T01:32:45.432Z,93.34
2022-08-30T01:35:55.144Z,93.79
2022-08-30T01:38:58.959Z,94.41
2022-08-30T01:42:15.478Z,94.77
2022-08-30T01:45:18.744Z,95.06
2022-08-30T01:48:23.182Z,95.25
2022-08-30T01:51:35.397Z,95.50
2022-08-30T01:54:58.397Z,95.62
2022-08-30T01:58:08.048Z,96.10
2022-08-30T02:01:26.001Z,96.21
2022-08-30T02:04:44.308Z,96.38
2022-08-30T02:07:49.439Z,96.82
2022-08-30T02:10:52.312Z,97.27
2022-08-30T02:14:02.823Z,97.58
2022-08-30T02:17:17.151Z,97.82
2022-08-30T02:20:22.262Z,97.24
2022-08-30T02:23:27.388Z,98.03
2022-08-30T02:26:36.719Z,98.19
2022-08-30T02:29:40.277Z,98.30
2022-08-30T02:32:44.465Z,98.48
2022-08-30T02:35:51.646Z,98.95
2022-08-30T02:39:14.540Z,99.35
2022-08-30T02:42:21.424Z,99.52
2022-08-30T02:45:40.754Z,99.76
2022-08-30T02:48:46.168Z,100.00
2022-08-30T02:51:55.056Z,100.00
2022-08-30T02:55:20.102Z,100.00
2022-08-30T02:58:26.045Z,100.00
2022-08-30T03:01:29.538Z,100.00
2022-08-30T03:04:35.928Z,100.00
2022-08-30T03:07:49.596Z,100.00
2022-08-30T03:10:52.589Z,100.00
2022-08-30T03:13:57.006Z,100.00
2022-08-30T03:17:07.174Z,100.00
2022-08-30T03:20:20.320Z,100.00
2022-08-30T03:23:26.063Z,100.00
2022-08-30T03:26:45.592Z,100.00
2022-08-30T03:30:23.106Z,100.00
2022-08-30T03:33:28.326Z,100.00
2022-08-30T03:36:43.595Z,100.00
2022-08-30T03:39:51.942Z,100.00
2022-08-30T03:42:55.183Z,100.00
2022-08-30T03:46:22.793Z,100.00
2022-08-30T03:49:48.190Z,100.00
2022-08-30T03:53:16.541Z,100.00
2022-08-30T03:56:24.098Z,100.00
2022-08-30T03:59:57.435Z,100.00
2022-08-30T04:03:14.313Z,100.00
2022-08-30T04:06:40.670Z,100.00
2022-08-30T04:10:10.616Z,100.00
2022-08-30T04:13:26.437Z,100.00
2022-08-30T04:16:33.519Z,100.00
2022-08-30T04:19:52.683Z,100.00
2022-08-30T04:23:03.385Z,100.00
2022-08-30T04:26:20.824Z,100.00
2022-08-30T04:29:24.975Z,100.00
2022-08-30T04:32:42.783Z,97.80
2022-08-30T04:36:09.927Z,92.32
2022-08-30T04:39:29.992Z,89.69
2022-08-30T04:42:56.467Z,89.61
2022-08-30T04:46:19.426Z,89.53
2022-08-30T04:49:38.928Z,90.48
2022-08-30T04:52:53.328Z,87.90
2022-08-30T04:56:24.616Z,84.16
2022-08-30T04:59:36.482Z,84.23
2022-08-30T05:02:54.352Z,85.17
2022-08-30T05:06:12.825Z,84.18
2022-08-30T05:09:42.761Z,84.90
2022-08-30T05:13:14.214Z,85.78
2022-08-30T05:16:46.699Z,83.80
2022-08-30T05:20:11.875Z,79.69
2022-08-30T05:23:33.056Z,80.25
2022-08-30T05:27:09.030Z,74.58
2022-08-30T05:30:43.279Z,73.97
2022-08-30T05:34:01.519Z,71.52
2022-08-30T05:37:28.069Z,70.16
2022-08-30T05:40:54.387Z,69.38
2022-08-30T05:44:25.835Z,68.84
2022-08-30T05:47:59.899Z,68.49
2022-08-30T05:51:29.866Z,67.20
2022-08-30T05:54:54.087Z,65.66
2022-08-30T05:58:01.105Z,65.86
2022-08-30T06:01:26.888Z,65.75
2022-08-30T06:04:55.297Z,65.32
2022-08-30T06:08:12.858Z,63.22
2022-08-30T06:11:27.200Z,63.01
2022-08-30T06:14:57.404Z,62.84
2022-08-30T06:18:28.780Z,60.82
2022-08-30T06:22:15.458Z,60.05
2022-08-30T06:25:45.611Z,60.44
2022-08-30T06:28:59.156Z,60.14
2022-08-30T06:32:23.153Z,60.11
2022-08-30T06:35:58.728Z,59.53
2022-08-30T06:39:12.912Z,59.64
2022-08-30T06:42:39.289Z,61.53
2022-08-30T06:45:59.749Z,61.53
2022-08-30T06:49:42.484Z,58.95
2022-08-30T06:52:51.017Z,59.08
2022-08-30T06:56:22.161Z,58.72
2022-08-30T07:00:03.147Z,60.75
2022-08-30T07:03:40.050Z,60.65
2022-08-30T07:07:04.128Z,61.20
2022-08-30T07:10:20.190Z,59.77
2022-08-30T07:13:31.002Z,59.80
2022-08-30T07:16:43.696Z,59.20
2022-08-30T07:20:22.189Z,57.39
2022-08-30T07:27:40.481Z,56.63
2022-08-30T07:30:58.833Z,55.22
2022-08-30T07:34:20.588Z,55.32
2022-08-30T07:37:45.041Z,54.84
2022-08-30T07:40:54.695Z,55.04
2022-08-30T07:44:16.807Z,55.04
2022-08-30T07:47:45.404Z,53.10
2022-08-30T07:50:52.632Z,51.81
2022-08-30T07:54:23.388Z,50.85
2022-08-30T07:57:44.588Z,49.04
2022-08-30T08:00:51.720Z,48.35
2022-08-30T08:03:54.565Z,46.44
2022-08-30T08:06:57.459Z,44.34
2022-08-30T08:10:01.008Z,47.24
2022-08-30T08:13:06.926Z,46.34
2022-08-30T08:16:12.630Z,43.77
2022-08-30T08:19:15.793Z,41.63
2022-08-30T08:22:46.712Z,40.62
2022-08-30T08:25:49.566Z,40.16
2022-08-30T08:29:13.740Z,38.07
2022-08-30T08:32:17.186Z,36.91
2022-08-30T08:35:21.019Z,36.09
2022-08-30T08:38:25.064Z,36.14
2022-08-30T08:41:37.228Z,35.98
2022-08-30T08:44:54.795Z,34.39
2022-08-30T08:48:58.487Z,35.29
2022-08-30T08:52:20.754Z,34.83
2022-08-30T08:59:01.737Z,32.19
2022-08-30T09:02:26.644Z,33.98
2022-08-30T09:05:38.345Z,34.93
2022-08-30T09:08:41.466Z,34.16
2022-08-30T09:11:48.376Z,33.55
2022-08-30T09:15:03.845Z,31.77
2022-08-30T09:18:54.716Z,33.55
2022-08-30T09:22:12.795Z,32.54
2022-08-30T09:25:28.983Z,32.13
2022-08-30T09:28:44.393Z,33.08
2022-08-30T09:32:01.354Z,33.26
2022-08-30T09:35:22.095Z,32.47
2022-08-30T09:38:35.997Z,31.24
2022-08-30T09:41:46.366Z,29.33
2022-08-30T09:45:10.645Z,29.95
2022-08-30T09:48:30.169Z,27.87
2022-08-30T09:51:40.797Z,28.89
2022-08-30T09:55:41.412Z,28.47
2022-08-30T09:59:07.412Z,28.22
2022-08-30T10:07:28.917Z,27.24
2022-08-30T10:10:52.399Z,27.37
2022-08-30T10:14:38.941Z,27.04
2022-08-30T10:18:32.212Z,25.83
2022-08-30T10:25:58.394Z,26.33
2022-08-30T10:29:31.405Z,27.93
2022-08-30T10:32:54.652Z,25.72
2022-08-30T10:36:14.462Z,25.57
2022-08-30T10:39:48.810Z,24.59
2022-08-30T10:43:31.879Z,24.33
2022-08-30T10:46:54.156Z,25.08
2022-08-30T10:50:30.823Z,23.75
2022-08-30T10:57:46.855Z,26.89
2022-08-30T11:02:02.025Z,27.17
2022-08-30T11:06:08.040Z,25.65
2022-08-30T11:13:13.271Z,25.50
2022-08-30T11:16:46.193Z,28.15
2022-08-30T11:31:41.701Z,26.97
2022-08-30T11:35:21.711Z,24.92
2022-08-30T11:42:33.593Z,27.83
2022-08-30T11:46:17.776Z,25.79
2022-08-30T11:50:14.899Z,25.66
2022-08-30T11:54:12.134Z,25.88
2022-08-30T11:57:48.033Z,26.31
2022-08-30T12:01:49.732Z,25.76
2022-08-30T12:05:11.191Z,26.06
2022-08-30T12:08:27.881Z,25.39
2022-08-30T12:11:44.656Z,24.83
2022-08-30T12:15:02.776Z,25.69
2022-08-30T12:18:29.464Z,26.99
2022-08-30T12:22:07.573Z,26.00
2022-08-30T12:29:22.547Z,27.67
2022-08-30T12:32:50.836Z,28.70
2022-08-30T12:36:39.722Z,28.92
2022-08-30T12:40:10.219Z,29.58
2022-08-30T12:51:05.070Z,32.07
2022-08-30T12:54:19.305Z,32.74
2022-08-30T12:57:46.105Z,32.78
2022-08-30T13:01:28.330Z,33.78
2022-08-30T13:04:35.702Z,33.87
2022-08-30T13:07:39.395Z,33.77
2022-08-30T13:22:09.600Z,36.83
2022-08-30T13:25:36.616Z,36.93
2022-08-30T13:28:45.688Z,37.30
2022-08-30T13:31:53.134Z,36.36
2022-08-30T13:35:00.453Z,38.00
2022-08-30T13:38:04.606Z,36.02
2022-08-30T13:41:08.179Z,36.35
2022-08-30T13:48:00.746Z,36.32
2022-08-30T13:51:35.597Z,36.43
2022-08-30T13:54:41.887Z,36.79
2022-08-30T14:05:02.640Z,35.75
2022-08-30T14:08:44.345Z,36.05
2022-08-30T14:11:27.800Z,36.53
2022-08-30T14:14:42.808Z,35.77
2022-08-30T14:17:47.612Z,36.15
2022-08-30T14:21:03.119Z,36.31
2022-08-30T14:24:08.415Z,35.54
2022-08-30T14:27:12.292Z,35.97
2022-08-30T14:30:21.189Z,36.28
2022-08-30T14:33:25.366Z,35.62
2022-08-30T14:36:30.336Z,35.44
2022-08-30T14:39:38.092Z,35.00
2022-08-30T14:42:42.709Z,34.84
2022-08-30T14:45:52.838Z,34.99
2022-08-30T14:48:56.305Z,37.01
2022-08-30T14:52:16.697Z,36.71
2022-08-30T14:55:23.691Z,37.37
2022-08-30T14:58:27.108Z,37.70
2022-08-30T15:01:31.887Z,38.73
2022-08-30T15:04:56.367Z,38.38
2022-08-30T15:08:03.906Z,38.06
2022-08-30T15:11:15.408Z,37.12
2022-08-30T15:14:20.277Z,37.95
2022-08-30T15:17:23.689Z,38.69
2022-08-30T15:20:48.549Z,39.68
2022-08-30T15:24:06.807Z,38.36
2022-08-30T15:27:11.123Z,38.09
2022-08-30T15:30:16.328Z,38.54
2022-08-30T15:33:38.801Z,38.83
2022-08-30T15:36:46.195Z,39.03
2022-08-30T15:40:07.716Z,39.28
2022-08-30T15:43:35.138Z,40.27
2022-08-30T15:46:49.351Z,41.27
2022-08-30T15:50:03.022Z,42.49
2022-08-30T15:53:07.641Z,43.03
2022-08-30T15:56:13.357Z,43.48
2022-08-30T15:59:17.638Z,43.70
2022-08-30T16:02:27.685Z,47.29
2022-08-30T16:05:51.254Z,48.13
2022-08-30T16:08:59.433Z,46.48
2022-08-30T16:12:12.342Z,47.98
2022-08-30T16:15:40.142Z,50.72
2022-08-30T16:19:02.841Z,56.85
2022-08-30T16:22:08.777Z,56.38
2022-08-30T16:25:40.653Z,54.50
2022-08-30T16:29:09.189Z,55.13
2022-08-30T16:32:33.540Z,55.48
2022-08-30T16:35:53.191Z,55.39
2022-08-30T16:39:01.155Z,51.88
2022-08-30T16:42:06.698Z,50.25
2022-08-30T16:45:12.716Z,50.82
2022-08-30T16:48:18.633Z,50.74
2022-08-30T16:51:23.883Z,50.47
2022-08-30T16:54:33.649Z,48.88
2022-08-30T16:57:36.666Z,48.68
2022-08-30T17:00:49.520Z,49.70
2022-08-30T17:03:54.877Z,47.88
2022-08-30T17:07:29.936Z,49.08
2022-08-30T17:10:50.675Z,46.42
2022-08-30T17:17:43.131Z,47.17
2022-08-30T17:54:53.748Z,45.54
2022-08-30T17:58:01.074Z,45.70
2022-08-30T18:01:48.006Z,45.48
2022-08-30T18:05:25.382Z,45.95
2022-08-30T18:12:30.220Z,46.56
2022-08-30T18:53:50.190Z,56.88
2022-08-30T19:24:06.226Z,58.42
2022-08-30T19:27:16.180Z,60.37
2022-08-30T21:18:26.259Z,69.48
2022-08-30T21:21:34.251Z,69.76
2022-08-30T21:28:34.904Z,70.37
2022-08-30T21:32:14.651Z,71.34
2022-08-30T21:35:56.130Z,72.25
2022-08-30T21:39:19.299Z,73.28
2022-08-30T21:49:37.575Z,74.22
2022-08-30T22:00:21.545Z,75.14
2022-08-30T22:03:52.413Z,75.36
2022-08-30T22:06:56.897Z,75.46
2022-08-30T22:10:00.431Z,75.11
2022-08-30T22:13:03.888Z,74.31
2022-08-30T22:16:07.556Z,74.24
2022-08-30T22:19:13.819Z,74.01
2022-08-30T22:22:17.616Z,74.42
2022-08-30T22:25:34.832Z,74.33
2022-08-30T22:28:55.494Z,75.00
2022-08-30T22:32:18.354Z,75.06
2022-08-30T22:35:24.052Z,75.55
2022-08-30T22:38:28.033Z,75.29
2022-08-30T22:41:37.031Z,74.42
2022-08-30T22:44:39.888Z,73.02
2022-08-30T22:47:43.493Z,72.55
2022-08-30T22:50:51.403Z,72.10
2022-08-30T22:53:54.165Z,72.95
2022-08-30T22:56:57.328Z,73.26
2022-08-30T23:00:03.461Z,73.30
2022-08-30T23:03:06.985Z,73.94
2022-08-30T23:06:14.602Z,73.66
2022-08-30T23:09:20.849Z,73.94
2022-08-30T23:12:24.164Z,74.24
2022-08-30T23:15:29.348Z,74.83
2022-08-30T23:18:33.258Z,74.69
2022-08-30T23:21:36.061Z,75.10
2022-08-30T23:24:57.368Z,74.73
2022-08-30T23:28:20.665Z,75.18
2022-08-30T23:31:43.659Z,74.87
2022-08-30T23:35:05.647Z,75.36
2022-08-30T23:38:29.512Z,76.15
2022-08-30T23:41:52.388Z,76.22
2022-08-30T23:45:18.521Z,77.57
2022-08-30T23:48:41.491Z,77.97
2022-08-30T23:52:14.883Z,78.35
2022-08-30T23:55:38.639Z,78.48
2022-08-30T23:59:00.892Z,78.41
